Time;durP1;ratioP1;P1;durP2;ratioP2;P2;SDS_P1;SDS_P2;PMS_P1;PMS_P2;Temp;Humidity;BMP_temperature;BMP_pressure;BME280_temperature;BME280_humidity;BME280_pressure;Samples;Min_cycle;Max_cycle;Signal;HPM_P1;HPM_P2
2024/04/20 00:00:29;;;;;;;7.40;6.60;;;;;;;4.12;100.00;100025.02;87626;277;138598;-76
2024/04/20 00:02:30;;;;;;;7.70;6.70;;;;;;;4.09;100.00;100027.31;87686;271;25130;-75
2024/04/20 00:04:30;;;;;;;8.10;6.90;;;;;;;4.06;100.00;100030.59;87551;267;136453;-76
2024/04/20 00:06:32;;;;;;;8.90;7.40;;;;;;;4.01;100.00;100030.27;87548;267;24823;-75
2024/04/20 00:08:32;;;;;;;7.90;7.00;;;;;;;3.97;100.00;100034.88;87448;271;137377;-75
2024/04/20 00:10:34;;;;;;;9.30;7.60;;;;;;;3.94;100.00;100034.45;86854;276;868960;-74
2024/04/20 00:12:35;;;;;;;8.20;7.10;;;;;;;3.93;100.00;100036.19;87524;279;136631;-74
2024/04/20 00:14:36;;;;;;;7.40;6.70;;;;;;;3.92;100.00;100035.53;87564;271;25127;-76
2024/04/20 00:16:36;;;;;;;7.20;6.50;;;;;;;3.93;100.00;100038.79;86953;271;136723;-76
2024/04/20 00:18:38;;;;;;;7.60;6.90;;;;;;;3.92;100.00;100039.94;87046;272;25090;-75
2024/04/20 00:20:39;;;;;;;8.00;7.20;;;;;;;3.89;100.00;100044.46;87020;268;136617;-76
2024/04/20 00:22:39;;;;;;;7.60;6.20;;;;;;;3.87;100.00;100045.36;87625;267;22667;-75
2024/04/20 00:24:40;;;;;;;9.60;6.90;;;;;;;3.85;100.00;100047.98;87429;268;136821;-74
2024/04/20 00:26:41;;;;;;;10.30;6.50;;;;;;;3.85;100.00;100050.80;87479;276;22571;-74
2024/04/20 00:28:41;;;;;;;9.00;8.00;;;;;;;3.84;100.00;100050.61;87451;274;137089;-74
2024/04/20 00:30:42;;;;;;;11.30;7.80;;;;;;;3.85;100.00;100052.10;87532;268;22875;-74
2024/04/20 00:32:45;;;;;;;9.00;6.50;;;;;;;3.83;100.00;100055.05;87446;279;136831;-73
2024/04/20 00:34:45;;;;;;;8.70;7.30;;;;;;;3.82;100.00;100054.62;87120;274;22587;-73
2024/04/20 00:36:50;;;;;;;10.40;6.70;;;;;;;3.82;100.00;100059.20;87073;270;136635;-73
2024/04/20 00:38:54;;;;;;;8.00;6.50;;;;;;;3.80;100.00;100063.83;87605;268;23756;-73
2024/04/20 00:40:56;;;;;;;7.10;6.50;;;;;;;3.77;100.00;100073.56;87297;270;136517;-74
2024/04/20 00:42:57;;;;;;;10.30;8.10;;;;;;;3.76;100.00;100076.39;87246;275;22704;-74
2024/04/20 00:44:58;;;;;;;8.20;6.80;;;;;;;3.75;100.00;100082.23;87177;274;137147;-74
2024/04/20 00:47:01;;;;;;;7.40;6.30;;;;;;;3.73;100.00;100083.84;87247;275;22653;-75
2024/04/20 00:49:02;;;;;;;7.70;6.90;;;;;;;3.71;100.00;100082.60;87479;270;137703;-73
2024/04/20 00:51:04;;;;;;;7.90;7.10;;;;;;;3.70;100.00;100081.07;87503;270;22566;-76
2024/04/20 00:53:05;;;;;;;6.70;6.10;;;;;;;3.69;100.00;100081.01;87358;280;136829;-75
2024/04/20 00:55:06;;;;;;;7.80;6.90;;;;;;;3.68;100.00;100079.77;87265;268;23734;-75
2024/04/20 00:57:08;;;;;;;7.60;6.90;;;;;;;3.67;100.00;100076.14;87344;275;136472;-74
2024/04/20 00:59:10;;;;;;;7.40;6.60;;;;;;;3.66;100.00;100076.39;87707;270;25140;-74
2024/04/20 01:01:11;;;;;;;7.00;6.30;;;;;;;3.65;100.00;100076.14;87532;272;136942;-74
2024/04/20 01:03:12;;;;;;;7.20;6.40;;;;;;;3.63;100.00;100077.88;87613;269;22561;-74
2024/04/20 01:05:17;;;;;;;7.20;5.70;;;;;;;3.63;100.00;100078.98;87489;280;137029;-73
2024/04/20 01:07:17;;;;;;;7.70;6.90;;;;;;;3.63;100.00;100080.27;87322;271;22564;-74
2024/04/20 01:09:18;;;;;;;6.70;6.10;;;;;;;3.61;100.00;100084.87;87068;271;136912;-75
2024/04/20 01:11:19;;;;;;;7.80;7.10;;;;;;;3.58;100.00;100085.45;87563;262;22549;-74
2024/04/20 01:13:26;;;;;;;6.80;6.20;;;;;;;3.56;100.00;100083.73;87445;279;136706;-74
2024/04/20 01:15:27;;;;;;;8.00;6.40;;;;;;;3.54;100.00;100082.30;87535;271;22563;-73
2024/04/20 01:17:28;;;;;;;7.30;6.50;;;;;;;3.51;100.00;100082.45;87467;270;136351;-78
2024/04/20 01:19:29;;;;;;;6.80;6.20;;;;;;;3.48;100.00;100081.52;87726;268;22955;-74
2024/04/20 01:21:30;;;;;;;7.80;6.60;;;;;;;3.46;100.00;100083.66;87600;268;136558;-72
2024/04/20 01:23:31;;;;;;;6.90;6.30;;;;;;;3.45;100.00;100087.48;87769;274;22551;-73
2024/04/20 01:25:33;;;;;;;7.60;6.60;;;;;;;3.46;100.00;100088.05;87433;276;137849;-73
2024/04/20 01:27:34;;;;;;;6.90;6.30;;;;;;;3.46;100.00;100088.21;87738;267;22573;-76
2024/04/20 01:29:35;;;;;;;6.60;5.90;;;;;;;3.46;100.00;100088.52;87487;271;136590;-76
2024/04/20 01:31:36;;;;;;;9.10;8.20;;;;;;;3.47;100.00;100087.44;87543;267;22654;-74
2024/04/20 01:33:37;;;;;;;8.90;6.80;;;;;;;3.46;100.00;100089.98;87477;270;137758;-75
2024/04/20 01:35:39;;;;;;;7.70;6.70;;;;;;;3.45;100.00;100088.64;87466;271;25136;-73
2024/04/20 01:37:40;;;;;;;7.60;6.50;;;;;;;3.44;100.00;100091.45;87470;270;137832;-74
2024/04/20 01:39:41;;;;;;;10.70;7.40;;;;;;;3.41;100.00;100095.37;87549;271;22724;-74
2024/04/20 01:41:41;;;;;;;7.90;7.20;;;;;;;3.39;100.00;100098.38;87409;277;138074;-75
2024/04/20 01:43:42;;;;;;;8.20;6.20;;;;;;;3.38;100.00;100099.66;87534;274;22604;-72
2024/04/20 01:45:43;;;;;;;6.50;5.90;;;;;;;3.39;100.00;100099.60;87298;268;137279;-74
2024/04/20 01:47:43;;;;;;;8.30;6.80;;;;;;;3.39;100.00;100104.52;87443;270;23766;-75
2024/04/20 01:49:44;;;;;;;6.50;6.00;;;;;;;3.38;100.00;100107.39;87415;266;137637;-72
2024/04/20 01:51:45;;;;;;;7.60;6.60;;;;;;;3.38;100.00;100110.08;87118;271;22675;-74
2024/04/20 01:53:45;;;;;;;8.10;7.30;;;;;;;3.39;100.00;100112.42;87000;279;137605;-75
2024/04/20 01:55:46;;;;;;;8.90;7.20;;;;;;;3.38;100.00;100116.54;87139;270;23869;-73
2024/04/20 01:57:47;;;;;;;8.40;6.80;;;;;;;3.38;100.00;100111.51;86894;269;138077;-74
2024/04/20 01:59:47;;;;;;;7.10;6.40;;;;;;;3.37;100.00;100118.58;87126;279;22684;-73
2024/04/20 02:01:51;;;;;;;8.00;7.10;;;;;;;3.35;100.00;100111.73;87103;271;136558;-74
2024/04/20 02:03:51;;;;;;;6.90;6.20;;;;;;;3.32;100.00;100113.81;87275;270;24062;-74
2024/04/20 02:05:53;;;;;;;10.10;6.40;;;;;;;3.30;100.00;100113.92;87025;275;136700;-74
2024/04/20 02:07:53;;;;;;;8.50;6.50;;;;;;;3.29;100.00;100116.70;87563;262;25282;-74
2024/04/20 02:09:54;;;;;;;6.70;6.00;;;;;;;3.26;100.00;100111.73;87346;271;136586;-74
2024/04/20 02:11:55;;;;;;;10.80;6.80;;;;;;;3.25;100.00;100115.01;87578;272;22657;-75
2024/04/20 02:13:56;;;;;;;8.70;6.60;;;;;;;3.24;100.00;100112.56;87468;276;135560;-75
2024/04/20 02:15:57;;;;;;;7.80;6.90;;;;;;;3.27;100.00;100111.97;87541;274;22572;-74
2024/04/20 02:17:58;;;;;;;8.10;7.30;;;;;;;3.28;100.00;100113.96;87391;270;136524;-73
2024/04/20 02:19:59;;;;;;;8.50;6.90;;;;;;;3.27;100.00;100117.94;87475;278;22576;-76
2024/04/20 02:21:59;;;;;;;6.90;6.30;;;;;;;3.25;100.00;100117.39;87258;278;136720;-73
2024/04/20 02:24:00;;;;;;;6.30;5.70;;;;;;;3.22;100.00;100119.81;87314;270;22873;-73
2024/04/20 02:26:00;;;;;;;7.20;6.30;;;;;;;3.18;100.00;100116.14;87246;273;136363;-76
2024/04/20 02:28:01;;;;;;;6.70;6.10;;;;;;;3.15;100.00;100119.08;87514;270;26098;-74
2024/04/20 02:30:02;;;;;;;7.60;6.90;;;;;;;3.14;100.00;100115.52;87256;270;136452;-76
2024/04/20 02:32:03;;;;;;;8.50;7.00;;;;;;;3.12;100.00;100118.11;87216;267;136561;-71
2024/04/20 02:34:03;;;;;;;7.80;6.60;;;;;;;3.11;100.00;100115.83;87338;266;25246;-74
2024/04/20 02:36:04;;;;;;;8.60;7.50;;;;;;;3.10;100.00;100117.49;87302;278;136806;-73
2024/04/20 02:38:05;;;;;;;9.40;6.50;;;;;;;3.09;100.00;100115.58;87369;270;22602;-73
2024/04/20 02:40:07;;;;;;;7.50;6.80;;;;;;;3.09;100.00;100115.94;87176;275;137991;-73
2024/04/20 02:42:08;;;;;;;8.20;6.90;;;;;;;3.09;100.00;100113.34;87327;278;23901;-74
2024/04/20 02:44:09;;;;;;;7.30;6.60;;;;;;;3.10;100.00;100113.61;87131;268;136733;-74
2024/04/20 02:46:11;;;;;;;7.80;7.00;;;;;;;3.11;100.00;100114.88;87326;274;24270;-73
2024/04/20 02:48:12;;;;;;;7.90;7.10;;;;;;;3.11;100.00;100117.35;87219;276;137064;-74
2024/04/20 02:50:12;;;;;;;6.20;5.60;;;;;;;3.11;100.00;100116.27;87155;272;25168;-75
2024/04/20 02:52:13;;;;;;;8.30;6.20;;;;;;;3.11;100.00;100118.41;87555;270;137776;-73
2024/04/20 02:54:15;;;;;;;7.20;6.30;;;;;;;3.12;100.00;100116.77;87097;276;22611;-74
2024/04/20 02:56:16;;;;;;;8.90;6.30;;;;;;;3.14;100.00;100120.77;87313;270;136959;-74
2024/04/20 02:58:16;;;;;;;6.70;5.80;;;;;;;3.17;100.00;100123.30;87332;270;25034;-73
2024/04/20 03:00:17;;;;;;;7.30;6.30;;;;;;;3.17;100.00;100123.34;87259;272;136807;-75
2024/04/20 03:02:18;;;;;;;9.00;6.70;;;;;;;3.15;100.00;100128.36;87318;275;22547;-76
2024/04/20 03:04:18;;;;;;;6.60;6.00;;;;;;;3.15;100.00;100130.19;87477;267;136658;-75
2024/04/20 03:06:21;;;;;;;7.70;6.20;;;;;;;3.12;100.00;100129.67;87418;278;23738;-76
2024/04/20 03:08:22;;;;;;;7.70;6.70;;;;;;;3.12;100.00;100133.02;87356;267;137943;-76
2024/04/20 03:10:23;;;;;;;8.80;5.60;;;;;;;3.15;100.00;100130.50;87564;274;22655;-74
2024/04/20 03:12:24;;;;;;;6.50;5.90;;;;;;;3.20;100.00;100132.27;87389;270;136579;-74
2024/04/20 03:14:25;;;;;;;7.70;6.70;;;;;;;3.27;100.00;100134.44;87418;268;23340;-74
2024/04/20 03:16:25;;;;;;;7.20;6.50;;;;;;;3.40;100.00;100135.31;87369;268;136697;-74
2024/04/20 03:18:26;;;;;;;7.20;6.50;;;;;;;3.62;100.00;100135.98;87417;272;22575;-75
2024/04/20 03:20:27;;;;;;;6.40;5.80;;;;;;;3.93;100.00;100134.40;87277;272;136847;-73
2024/04/20 03:22:28;;;;;;;6.00;5.50;;;;;;;4.28;100.00;100133.25;87390;279;22587;-75
2024/04/20 03:24:28;;;;;;;5.20;4.80;;;;;;;4.58;100.00;100132.39;87339;271;137370;-73
2024/04/20 03:26:29;;;;;;;6.30;5.70;;;;;;;4.82;100.00;100135.28;87498;277;23900;-72
2024/04/20 03:28:30;;;;;;;7.20;6.00;;;;;;;5.07;100.00;100140.86;87441;272;136581;-72
2024/04/20 03:30:31;;;;;;;6.20;5.50;;;;;;;5.37;100.00;100136.65;87427;279;25210;-72
2024/04/20 03:32:31;;;;;;;5.90;5.40;;;;;;;5.71;100.00;100146.20;87442;278;136558;-71
2024/04/20 03:34:32;;;;;;;5.40;4.90;;;;;;;6.03;100.00;100145.13;87547;270;22744;-72
2024/04/20 03:36:33;;;;;;;6.30;5.70;;;;;;;6.35;100.00;100155.65;87283;279;137500;-74
2024/04/20 03:38:34;;;;;;;8.00;4.60;;;;;;;6.65;100.00;100159.27;87436;278;25272;-73
2024/04/20 03:40:34;;;;;;;5.20;4.70;;;;;;;6.94;100.00;100156.32;87252;274;135467;-73
2024/04/20 03:42:35;;;;;;;4.70;4.30;;;;;;;7.20;100.00;100163.34;87519;275;25079;-75
2024/04/20 03:44:36;;;;;;;5.50;4.70;;;;;;;7.44;100.00;100164.91;87400;272;137570;-72
2024/04/20 03:46:37;;;;;;;5.50;5.00;;;;;;;7.65;100.00;100163.77;87251;271;22574;-74
2024/04/20 03:48:38;;;;;;;4.60;4.20;;;;;;;7.91;100.00;100164.53;87437;271;136889;-72
2024/04/20 03:50:38;;;;;;;9.70;5.20;;;;;;;8.31;100.00;100166.08;87727;270;22593;-71
2024/04/20 03:52:39;;;;;;;4.80;4.40;;;;;;;8.81;100.00;100156.82;88865;271;137047;-72
2024/04/20 03:54:40;;;;;;;4.50;4.20;;;;;;;9.38;100.00;100158.44;89317;276;22545;-71
2024/04/20 03:56:40;;;;;;;4.90;4.50;;;;;;;9.88;100.00;100160.55;89206;269;136719;-71
2024/04/20 03:58:41;;;;;;;6.70;5.00;;;;;;;10.31;100.00;100159.54;89654;268;22589;-70
2024/04/20 04:00:42;;;;;;;6.30;5.70;;;;;;;10.60;100.00;100166.52;88248;274;136873;-73
2024/04/20 04:02:44;;;;;;;5.10;4.70;;;;;;;10.89;100.00;100165.51;87307;271;23721;-74
2024/04/20 04:04:44;;;;;;;4.30;4.00;;;;;;;11.23;100.00;100161.41;87401;269;135849;-71
2024/04/20 04:06:45;;;;;;;5.20;4.80;;;;;;;11.51;100.00;100163.40;87360;279;24020;-72
2024/04/20 04:08:47;;;;;;;5.80;4.00;;;;;;;11.59;100.00;100164.17;87316;280;136616;-71
2024/04/20 04:12:43;;;;;;;4.60;4.10;;;;;;;11.54;100.00;100162.12;85116;300;603354;-73
2024/04/20 04:14:43;;;;;;;5.20;4.50;;;;;;;11.63;100.00;100169.15;87171;271;22646;-71
2024/04/20 04:16:45;;;;;;;6.80;4.40;;;;;;;11.58;100.00;100167.86;86806;275;136859;-71
2024/04/20 04:18:46;;;;;;;5.60;4.20;;;;;;;11.44;100.00;100173.35;86946;279;22822;-72
2024/04/20 04:20:47;;;;;;;5.60;4.90;;;;;;;11.35;100.00;100173.59;86822;271;136016;-73
2024/04/20 04:22:49;;;;;;;5.60;5.00;;;;;;;11.25;100.00;100177.92;86983;271;22758;-73
2024/04/20 04:24:50;;;;;;;6.50;5.30;;;;;;;11.20;100.00;100172.71;86656;276;136349;-73
2024/04/20 04:26:50;;;;;;;6.30;5.30;;;;;;;11.29;99.45;100177.78;86150;273;1101631;-70
2024/04/20 04:28:51;;;;;;;8.00;5.60;;;;;;;11.30;97.14;100182.23;87045;274;137360;-71
2024/04/20 04:30:52;;;;;;;8.20;6.20;;;;;;;11.31;98.96;100181.89;86945;277;23576;-71
2024/04/20 04:32:53;;;;;;;6.90;5.30;;;;;;;11.59;97.64;100189.75;86884;273;135503;-70
2024/04/20 04:34:54;;;;;;;8.00;5.40;;;;;;;11.96;96.50;100188.19;86962;270;24027;-73
2024/04/20 04:36:54;;;;;;;8.20;5.50;;;;;;;12.36;94.53;100194.20;87147;273;135964;-71
2024/04/20 04:38:55;;;;;;;8.10;5.40;;;;;;;12.72;91.54;100192.33;86899;281;24301;-70
2024/04/20 04:40:56;;;;;;;11.50;6.70;;;;;;;12.96;90.45;100196.16;86798;281;135270;-69
2024/04/20 04:42:57;;;;;;;9.70;6.50;;;;;;;13.14;89.93;100191.94;86787;273;23370;-72
2024/04/20 04:45:00;;;;;;;7.70;6.80;;;;;;;13.34;86.43;100197.77;86778;270;135910;-72
2024/04/20 04:47:01;;;;;;;10.10;7.30;;;;;;;13.51;83.45;100198.23;87014;274;23855;-71
2024/04/20 04:49:01;;;;;;;8.90;6.70;;;;;;;13.49;79.97;100200.08;86870;269;136052;-70
2024/04/20 04:51:02;;;;;;;8.90;7.20;;;;;;;13.25;80.50;100208.27;86932;270;22571;-70
2024/04/20 04:53:03;;;;;;;11.50;7.80;;;;;;;13.09;84.06;100210.96;86807;283;136062;-71
2024/04/20 04:55:04;;;;;;;9.20;7.00;;;;;;;13.30;83.77;100209.79;86981;277;22585;-71
2024/04/20 04:57:05;;;;;;;10.50;6.30;;;;;;;13.65;79.71;100208.59;87103;282;135927;-69
2024/04/20 04:59:06;;;;;;;7.60;6.80;;;;;;;13.76;77.14;100212.10;86937;274;22573;-70
2024/04/20 05:01:07;;;;;;;11.20;6.70;;;;;;;13.76;77.72;100209.38;86815;271;135577;-69
2024/04/20 05:03:07;;;;;;;8.30;7.50;;;;;;;13.89;75.97;100205.48;86870;270;22606;-72
2024/04/20 05:05:08;;;;;;;7.40;6.70;;;;;;;13.98;76.36;100205.29;87020;272;135944;-72
2024/04/20 05:07:09;;;;;;;8.00;7.10;;;;;;;14.23;76.98;100207.08;86790;270;22574;-71
2024/04/20 05:09:10;;;;;;;10.30;7.50;;;;;;;14.63;75.58;100205.34;86731;279;136886;-72
2024/04/20 05:11:11;;;;;;;8.50;7.50;;;;;;;14.99;69.82;100215.91;87120;271;22817;-72
2024/04/20 05:13:11;;;;;;;10.50;7.50;;;;;;;15.14;65.40;100213.38;87256;275;135519;-73
2024/04/20 05:15:12;;;;;;;11.60;7.20;;;;;;;15.05;64.11;100214.16;87513;270;22817;-72
2024/04/20 05:17:13;;;;;;;7.90;6.80;;;;;;;14.88;64.03;100217.66;87037;266;135832;-73
2024/04/20 05:19:14;;;;;;;12.40;7.80;;;;;;;14.70;64.34;100226.42;87552;270;22570;-72
2024/04/20 05:21:15;;;;;;;10.10;7.00;;;;;;;14.24;64.98;100228.30;87452;274;136268;-72
2024/04/20 05:23:16;;;;;;;9.60;7.40;;;;;;;13.73;67.27;100235.17;87540;278;22976;-74
2024/04/20 05:25:16;;;;;;;9.50;7.00;;;;;;;13.35;67.75;100236.14;87341;275;135751;-73
2024/04/20 05:27:17;;;;;;;6.80;6.00;;;;;;;12.92;68.93;100236.16;87643;266;23994;-73
2024/04/20 05:29:18;;;;;;;8.30;6.40;;;;;;;12.60;70.31;100240.50;87585;278;135936;-74
2024/04/20 05:31:19;;;;;;;9.10;6.10;;;;;;;12.51;71.39;100238.77;87745;270;22736;-72
2024/04/20 05:33:19;;;;;;;5.80;5.00;;;;;;;12.50;71.09;100247.09;87623;269;135882;-74
2024/04/20 05:35:20;;;;;;;7.70;6.90;;;;;;;12.38;71.72;100243.23;87668;270;26826;-73
2024/04/20 05:37:21;;;;;;;7.00;5.70;;;;;;;12.34;73.98;100243.76;87576;278;136740;-75
2024/04/20 05:39:22;;;;;;;9.90;6.90;;;;;;;12.31;72.79;100241.86;87655;270;22650;-76
2024/04/20 05:41:23;;;;;;;11.40;6.50;;;;;;;12.27;74.18;100239.34;87533;270;135762;-75
2024/04/20 05:43:23;;;;;;;8.20;6.60;;;;;;;12.38;74.01;100239.16;87610;270;25137;-75
2024/04/20 05:45:26;;;;;;;9.70;6.00;;;;;;;12.60;73.13;100239.33;87460;276;136016;-71
2024/04/20 05:47:26;;;;;;;8.70;6.60;;;;;;;12.76;72.56;100244.36;87607;279;22881;-75
2024/04/20 05:49:29;;;;;;;8.30;7.10;;;;;;;12.85;71.92;100239.71;87458;271;135805;-76
2024/04/20 05:51:30;;;;;;;8.90;6.70;;;;;;;12.88;72.15;100241.42;87602;270;22560;-75
2024/04/20 05:53:30;;;;;;;7.50;5.80;;;;;;;12.95;71.92;100241.92;87473;275;136903;-75
2024/04/20 05:55:31;;;;;;;7.30;6.50;;;;;;;13.13;72.99;100244.22;87549;270;22558;-74
2024/04/20 05:57:31;;;;;;;8.40;7.50;;;;;;;13.41;70.93;100248.05;87276;272;135452;-75
2024/04/20 05:59:32;;;;;;;6.10;5.50;;;;;;;13.54;70.69;100249.86;87598;278;24020;-71
2024/04/20 06:01:33;;;;;;;7.60;6.80;;;;;;;13.72;70.87;100252.58;87086;274;135699;-70
2024/04/20 06:03:35;;;;;;;11.50;7.40;;;;;;;13.93;68.21;100253.12;87055;270;22559;-72
2024/04/20 06:05:38;;;;;;;11.00;7.70;;;;;;;13.99;68.37;100252.77;87525;278;137060;-72
2024/04/20 06:07:39;;;;;;;11.10;7.90;;;;;;;14.01;66.92;100255.89;87547;279;22565;-76
2024/04/20 06:09:41;;;;;;;12.40;7.90;;;;;;;14.02;67.43;100257.38;87375;275;151828;-73
2024/04/20 06:11:43;;;;;;;11.60;9.00;;;;;;;14.17;69.11;100259.31;87654;267;25123;-72
2024/04/20 06:13:44;;;;;;;10.50;9.20;;;;;;;14.51;68.99;100260.27;87067;271;137344;-71
2024/04/20 06:15:45;;;;;;;15.20;11.00;;;;;;;14.79;63.72;100263.35;87481;267;25185;-72
2024/04/20 06:17:46;;;;;;;14.80;9.90;;;;;;;14.68;62.73;100262.52;87396;275;136514;-73
2024/04/20 06:19:46;;;;;;;13.30;10.00;;;;;;;14.40;63.51;100266.99;87574;266;22565;-72
2024/04/20 06:21:47;;;;;;;13.40;9.60;;;;;;;14.31;64.46;100266.06;87366;272;137481;-72
2024/04/20 06:23:48;;;;;;;20.30;12.10;;;;;;;14.40;64.66;100265.14;87622;279;22813;-73
2024/04/20 06:25:49;;;;;;;14.80;11.20;;;;;;;14.47;64.18;100272.02;87429;274;136234;-73
2024/04/20 06:27:49;;;;;;;16.80;9.40;;;;;;;14.54;63.59;100268.69;87535;270;25063;-72
2024/04/20 06:29:50;;;;;;;13.60;9.40;;;;;;;14.50;62.40;100266.81;87435;274;138091;-72
2024/04/20 06:31:51;;;;;;;13.50;8.20;;;;;;;14.43;62.52;100271.44;87581;274;22571;-74
2024/04/20 06:33:54;;;;;;;8.30;6.60;;;;;;;14.33;61.63;100271.69;87498;270;136252;-75
2024/04/20 06:35:55;;;;;;;9.50;7.10;;;;;;;14.12;62.61;100273.36;87506;279;23786;-74
2024/04/20 06:37:56;;;;;;;5.50;4.80;;;;;;;14.02;64.82;100273.13;87450;263;135729;-73
2024/04/20 06:39:56;;;;;;;3.60;3.30;;;;;;;14.14;63.96;100276.08;87510;270;24357;-75
2024/04/20 06:41:57;;;;;;;4.70;3.50;;;;;;;14.22;60.82;100275.05;87465;267;135853;-72
2024/04/20 06:43:59;;;;;;;2.30;2.00;;;;;;;13.92;60.14;100273.08;87563;271;22567;-70
2024/04/20 06:46:00;;;;;;;2.70;2.40;;;;;;;13.58;63.06;100275.41;87493;274;135651;-71
2024/04/20 06:48:01;;;;;;;1.70;1.30;;;;;;;13.40;63.87;100275.84;87602;275;25472;-74
2024/04/20 06:50:03;;;;;;;6.10;2.20;;;;;;;13.26;62.03;100280.02;87556;271;22580;-72
2024/04/20 06:52:07;;;;;;;1.90;1.50;;;;;;;13.14;63.55;100280.04;87430;270;136972;-73
2024/04/20 06:54:08;;;;;;;1.80;1.70;;;;;;;13.14;64.12;100283.29;87566;270;24013;-72
2024/04/20 06:56:11;;;;;;;1.90;1.20;;;;;;;13.25;62.63;100285.27;87479;270;137373;-72
2024/04/20 06:58:11;;;;;;;1.60;1.50;;;;;;;13.19;59.70;100280.66;87688;270;22571;-72
2024/04/20 07:00:13;;;;;;;1.80;1.20;;;;;;;13.04;61.87;100279.21;87594;270;136765;-72
2024/04/20 07:02:14;;;;;;;1.20;1.10;;;;;;;12.95;62.68;100278.89;89203;266;23504;-73
2024/04/20 07:04:14;;;;;;;2.50;1.00;;;;;;;12.88;62.60;100283.16;88681;270;136237;-71
2024/04/20 07:06:15;;;;;;;2.40;1.50;;;;;;;12.83;62.41;100277.48;87039;275;22543;-73
2024/04/20 07:08:16;;;;;;;1.80;1.70;;;;;;;12.75;63.26;100286.03;86994;273;136335;-72
2024/04/20 07:10:17;;;;;;;1.10;0.80;;;;;;;12.60;63.95;100276.39;87113;270;21525;-75
2024/04/20 07:12:18;;;;;;;1.50;1.40;;;;;;;12.44;64.91;100275.98;86892;270;136834;-75
2024/04/20 07:14:19;;;;;;;2.40;1.40;;;;;;;12.31;66.60;100275.36;87021;278;22546;-74
2024/04/20 07:16:20;;;;;;;1.10;1.10;;;;;;;12.18;64.60;100271.20;87130;270;136467;-72
2024/04/20 07:18:20;;;;;;;1.00;0.50;;;;;;;11.95;62.75;100271.48;87682;271;22651;-73
2024/04/20 07:20:21;;;;;;;0.80;0.80;;;;;;;11.79;63.24;100273.52;87659;270;135735;-73
2024/04/20 07:22:22;;;;;;;1.00;0.50;;;;;;;11.72;64.73;100275.52;87819;268;22608;-73
2024/04/20 07:24:23;;;;;;;0.70;0.30;;;;;;;11.67;64.12;100281.62;87900;268;136891;-73
2024/04/20 07:26:24;;;;;;;0.50;0.50;;;;;;;11.63;64.63;100287.45;88068;266;22528;-71
2024/04/20 07:28:27;;;;;;;2.80;0.40;;;;;;;11.62;63.93;100288.18;88110;274;135395;-74
2024/04/20 07:30:27;;;;;;;1.00;0.40;;;;;;;11.51;59.35;100295.73;88547;270;25258;-75
2024/04/20 07:32:28;;;;;;;0.30;0.30;;;;;;;11.43;59.90;100297.14;87432;267;135842;-70
2024/04/20 07:34:30;;;;;;;1.50;0.50;;;;;;;11.37;60.48;100296.89;87242;274;22555;-73
2024/04/20 07:36:31;;;;;;;0.90;0.30;;;;;;;11.33;58.66;100294.23;87027;270;135925;-73
2024/04/20 07:38:31;;;;;;;0.80;0.50;;;;;;;11.30;59.50;100284.53;87076;271;22618;-72
2024/04/20 07:40:32;;;;;;;0.70;0.40;;;;;;;11.36;59.73;100293.09;86859;268;136292;-72
2024/04/20 07:42:33;;;;;;;3.70;0.30;;;;;;;11.42;59.49;100284.24;87085;279;22554;-71
2024/04/20 07:44:34;;;;;;;0.70;0.40;;;;;;;11.48;57.30;100285.67;87030;274;135922;-69
2024/04/20 07:46:35;;;;;;;0.80;0.40;;;;;;;11.48;54.62;100276.55;87033;270;24149;-72
2024/04/20 07:48:36;;;;;;;1.10;0.20;;;;;;;11.47;55.56;100270.27;86959;266;136752;-69
2024/04/20 07:50:36;;;;;;;2.50;0.30;;;;;;;11.48;54.61;100271.79;87068;264;22645;-70
2024/04/20 07:52:37;;;;;;;2.50;0.30;;;;;;;11.44;54.84;100274.64;86966;278;137069;-73
2024/04/20 07:54:38;;;;;;;1.10;0.60;;;;;;;11.41;55.84;100277.86;87043;270;26498;-71
2024/04/20 07:56:39;;;;;;;0.50;0.30;;;;;;;11.40;54.03;100282.54;86941;278;136119;-72
2024/04/20 07:58:39;;;;;;;0.40;0.30;;;;;;;11.37;54.22;100279.82;87006;274;22652;-70
2024/04/20 08:00:40;;;;;;;0.80;0.50;;;;;;;11.35;56.08;100281.64;86927;270;136991;-69
2024/04/20 08:02:41;;;;;;;0.60;0.50;;;;;;;11.38;54.57;100285.73;86956;267;24426;-72
2024/04/20 08:04:41;;;;;;;0.60;0.20;;;;;;;11.43;55.37;100282.77;86861;270;135812;-71
2024/04/20 08:06:42;;;;;;;0.30;0.20;;;;;;;11.48;53.39;100288.34;87064;270;22524;-71
2024/04/20 08:08:43;;;;;;;0.30;0.30;;;;;;;11.52;53.32;100286.43;86915;278;136284;-72
2024/04/20 08:10:44;;;;;;;1.90;0.30;;;;;;;11.55;54.06;100287.11;87090;270;22594;-71
2024/04/20 08:12:45;;;;;;;0.40;0.20;;;;;;;11.57;52.72;100281.95;86746;274;135918;-70
2024/04/20 08:14:45;;;;;;;0.60;0.20;;;;;;;11.59;51.79;100285.94;87052;272;25108;-72
2024/04/20 08:16:46;;;;;;;0.70;0.30;;;;;;;11.62;51.98;100294.76;86945;274;136984;-70
2024/04/20 08:18:47;;;;;;;1.50;0.30;;;;;;;11.66;51.67;100292.84;87034;267;24023;-71
2024/04/20 08:20:53;;;;;;;0.30;0.30;;;;;;;11.69;52.09;100285.88;87039;272;136955;-69
2024/04/20 08:22:54;;;;;;;0.60;0.20;;;;;;;11.74;51.47;100295.16;86982;270;22548;-70
2024/04/20 08:24:55;;;;;;;0.30;0.10;;;;;;;11.77;48.66;100295.95;86921;270;136491;-70
2024/04/20 08:26:55;;;;;;;0.30;0.20;;;;;;;11.74;46.90;100289.08;87130;267;22505;-72
2024/04/20 08:28:56;;;;;;;0.70;0.20;;;;;;;11.75;47.51;100286.16;86985;279;135797;-68
2024/04/20 08:31:00;;;;;;;0.40;0.20;;;;;;;11.79;48.84;100292.43;86945;280;24218;-71
2024/04/20 08:33:01;;;;;;;0.60;0.30;;;;;;;11.81;48.68;100291.82;86991;276;136452;-70
2024/04/20 08:35:02;;;;;;;0.70;0.30;;;;;;;11.80;48.71;100285.08;86909;280;22509;-69
2024/04/20 08:37:03;;;;;;;0.40;0.20;;;;;;;11.79;48.86;100277.77;86861;279;136243;-71
2024/04/20 08:39:04;;;;;;;0.70;0.30;;;;;;;11.83;49.73;100280.50;87013;279;22543;-70
2024/04/20 08:41:08;;;;;;;0.20;0.20;;;;;;;11.87;50.07;100286.31;86905;274;136382;-70
2024/04/20 08:43:09;;;;;;;0.40;0.40;;;;;;;11.87;48.61;100289.36;86927;280;24073;-71
2024/04/20 08:45:14;;;;;;;0.60;0.40;;;;;;;11.83;48.80;100282.09;86935;270;136281;-71
2024/04/20 08:47:16;;;;;;;0.60;0.40;;;;;;;11.79;48.94;100285.27;87382;276;24003;-70
2024/04/20 08:49:20;;;;;;;1.70;0.40;;;;;;;11.73;49.45;100294.57;86950;271;136088;-72
2024/04/20 08:51:21;;;;;;;0.20;0.20;;;;;;;11.69;51.29;100298.77;86858;276;22722;-73
2024/04/20 08:53:23;;;;;;;0.30;0.20;;;;;;;11.72;51.60;100301.52;86937;271;135688;-69
2024/04/20 08:55:25;;;;;;;2.10;0.40;;;;;;;11.78;50.27;100296.82;86845;273;24369;-70
2024/04/20 08:57:26;;;;;;;0.30;0.20;;;;;;;11.80;50.19;100294.40;87030;271;135869;-69
2024/04/20 08:59:27;;;;;;;0.30;0.30;;;;;;;11.81;50.54;100294.12;87027;267;22558;-69
2024/04/20 09:01:32;;;;;;;1.00;0.50;;;;;;;11.83;49.88;100297.02;86929;279;135799;-72
2024/04/20 09:03:34;;;;;;;;;;;;;;;11.80;49.79;100287.05;86887;269;22657;-70
2024/04/20 09:05:36;;;;;;;0.80;0.80;;;;;;;11.75;50.50;100278.19;87443;272;122859;-71
2024/04/20 09:07:38;;;;;;;0.40;0.40;;;;;;;11.70;50.49;100269.59;87054;270;23998;-72
2024/04/20 09:09:39;;;;;;;0.50;0.30;;;;;;;11.67;50.71;100265.00;87051;270;135941;-71
2024/04/20 09:11:40;;;;;;;0.30;0.30;;;;;;;11.68;50.65;100258.35;87079;270;25101;-72
2024/04/20 09:13:41;;;;;;;0.50;0.50;;;;;;;11.74;50.78;100257.33;87032;278;135858;-70
2024/04/20 09:15:45;;;;;;;0.70;0.30;;;;;;;11.79;50.54;100266.88;86916;267;22555;-73
2024/04/20 09:17:46;;;;;;;1.30;0.40;;;;;;;11.83;50.41;100256.58;88992;267;135716;-70
2024/04/20 09:19:49;;;;;;;0.40;0.30;;;;;;;11.83;50.64;100246.27;87148;270;25040;-73
2024/04/20 09:21:50;;;;;;;0.40;0.30;;;;;;;11.83;51.26;100256.30;87003;272;136449;-72
2024/04/20 09:23:51;;;;;;;0.80;0.70;;;;;;;11.84;51.19;100259.88;87167;275;22572;-71
2024/04/20 09:25:53;;;;;;;0.40;0.40;;;;;;;11.84;50.25;100254.98;86900;268;136340;-71
2024/04/20 09:27:55;;;;;;;1.70;0.40;;;;;;;11.86;50.03;100248.50;87166;270;24010;-71